Terminal Aerodrome Forecast
Issued by NWS

Home | Current Version | Previous Version | Text Only | Print | Product List | Glossary On
Versions: 1 2 3 4 5 6 7 8 9 10 11 12 13 14 15 16 17
998
FTUS41 KAKQ 191141
TAFPHF
TAF
KPHF 191141Z 1912/2012 23012G20KT P6SM -RA SCT025 BKN035
     FM191300 28014G22KT P6SM VCSH BKN060 OVC150
     FM191500 28012G20KT P6SM SCT200
     FM200100 30009G15KT P6SM SKC=

USA.gov is the U.S. government's official web portal to all federal, state and local government web resources and services.